Time;durP1;ratioP1;P1;durP2;ratioP2;P2;SDS_P1;SDS_P2;PMS_P1;PMS_P2;Temp;Humidity;BMP_temperature;BMP_pressure;BME280_temperature;BME280_humidity;BME280_pressure;Samples;Min_cycle;Max_cycle;Signal;HPM_P1;HPM_P2
2021/10/05 00:01:05;;;;;;;17.85;10.77;;;;;;;6.34;70.83;94191.16;5072752;28;20089;-49
2021/10/05 00:03:31;;;;;;;20.80;10.77;;;;;;;6.29;71.01;94171.94;5072801;28;20480;-49
2021/10/05 00:05:56;;;;;;;14.57;9.77;;;;;;;6.24;70.84;94172.72;5072642;28;20607;-48
2021/10/05 00:08:22;;;;;;;13.98;9.88;;;;;;;6.46;70.22;94186.34;5072672;28;20029;-47
2021/10/05 00:10:47;;;;;;;16.98;10.27;;;;;;;6.45;69.20;94190.38;5072725;28;20028;-47
2021/10/05 00:13:13;;;;;;;18.52;11.23;;;;;;;6.41;69.42;94184.41;5072128;28;20032;-50
2021/10/05 00:15:38;;;;;;;20.83;12.70;;;;;;;6.47;69.25;94188.63;5072588;28;20028;-48
2021/10/05 00:18:04;;;;;;;19.20;12.68;;;;;;;6.28;69.89;94178.69;5072380;28;20032;-49
2021/10/05 00:20:29;;;;;;;20.50;12.70;;;;;;;6.40;69.71;94185.63;5071805;28;20025;-49
2021/10/05 00:22:55;;;;;;;21.85;13.10;;;;;;;6.21;70.37;94188.19;5071902;28;20076;-48
2021/10/05 00:25:20;;;;;;;30.45;13.10;;;;;;;6.26;69.85;94190.16;5072053;28;20028;-48
2021/10/05 00:27:46;;;;;;;21.70;13.07;;;;;;;6.30;70.18;94192.66;5072246;28;20020;-49
2021/10/05 00:30:12;;;;;;;18.65;12.57;;;;;;;6.18;70.23;94188.44;5072186;28;20025;-49
2021/10/05 00:32:37;;;;;;;22.92;12.95;;;;;;;5.87;70.75;94173.78;5072208;28;20086;-49
2021/10/05 00:35:04;;;;;;;23.50;13.30;;;;;;;6.09;71.92;94183.97;5072091;28;20082;-47
2021/10/05 00:37:29;;;;;;;22.08;12.98;;;;;;;6.07;72.09;94187.22;5071758;28;20108;-48
2021/10/05 00:39:55;;;;;;;20.88;12.75;;;;;;;6.11;72.55;94179.47;5072011;28;20095;-48
2021/10/05 00:42:20;;;;;;;19.75;11.18;;;;;;;5.76;73.16;94135.41;5071639;28;20031;-47
2021/10/05 00:44:48;;;;;;;15.75;11.35;;;;;;;5.98;73.31;94176.50;5071933;28;20025;-49
2021/10/05 00:47:15;;;;;;;17.55;11.70;;;;;;;6.09;72.89;94179.22;5071496;28;20585;-47
2021/10/05 00:49:42;;;;;;;14.75;9.77;;;;;;;6.11;71.91;94171.25;5071572;28;20017;-48
2021/10/05 00:52:09;;;;;;;14.30;10.45;;;;;;;6.13;71.80;94170.75;5071506;28;20052;-47
2021/10/05 00:54:36;;;;;;;15.55;10.65;;;;;;;6.16;71.54;94182.72;5071451;28;20024;-47
2021/10/05 00:57:02;;;;;;;14.80;11.40;;;;;;;6.05;71.09;94156.81;5071663;28;20025;-49
2021/10/05 00:59:29;;;;;;;15.77;10.65;;;;;;;6.15;71.26;94167.53;5071655;28;20028;-48
2021/10/05 01:01:54;;;;;;;17.88;11.20;;;;;;;6.10;71.24;94166.28;5070936;28;20082;-48
2021/10/05 01:04:20;;;;;;;14.30;11.40;;;;;;;6.04;71.46;94155.31;5071596;28;20480;-49
2021/10/05 01:06:47;;;;;;;21.05;11.50;;;;;;;6.03;71.24;94164.03;5071103;28;20024;-49
2021/10/05 01:09:14;;;;;;;15.20;10.70;;;;;;;5.96;71.23;94159.81;5070995;28;20055;-49
2021/10/05 01:11:40;;;;;;;14.60;10.68;;;;;;;5.78;71.92;94157.56;5071170;28;20020;-48
2021/10/05 01:14:06;;;;;;;16.05;10.80;;;;;;;5.85;71.33;94154.38;5070993;28;20040;-49
2021/10/05 01:16:31;;;;;;;15.82;10.43;;;;;;;5.62;70.78;94113.78;5071056;28;20513;-47
2021/10/05 01:18:57;;;;;;;16.77;11.13;;;;;;;5.79;70.23;94147.38;5070555;28;20103;-47
2021/10/05 01:21:22;;;;;;;13.55;10.43;;;;;;;5.84;70.65;94149.38;5070767;28;20052;-50
2021/10/05 01:23:48;;;;;;;15.02;11.40;;;;;;;5.75;71.97;94138.66;5071210;28;20029;-50
2021/10/05 01:26:13;;;;;;;15.73;10.50;;;;;;;5.67;72.04;94138.44;5071008;28;20062;-51
2021/10/05 01:28:39;;;;;;;15.10;10.50;;;;;;;5.64;72.59;94142.16;5071163;28;20039;-51
2021/10/05 01:31:04;;;;;;;18.33;11.70;;;;;;;5.67;72.39;94152.13;5070929;28;20020;-51
2021/10/05 01:33:30;;;;;;;22.20;12.32;;;;;;;5.70;71.74;94145.63;5070780;28;20040;-48
2021/10/05 01:35:55;;;;;;;21.55;13.70;;;;;;;5.73;71.43;94144.66;5070645;28;20020;-47
2021/10/05 01:38:21;;;;;;;15.82;10.68;;;;;;;5.70;71.52;94140.16;5070702;28;20016;-51
2021/10/05 01:40:48;;;;;;;16.00;10.60;;;;;;;5.73;71.32;94141.91;5069663;28;20483;-48
2021/10/05 01:43:13;;;;;;;27.95;16.85;;;;;;;5.50;70.54;94147.91;5070161;28;20488;-48
2021/10/05 01:45:40;;;;;;;28.40;15.93;;;;;;;5.47;71.35;94149.66;5070938;28;20055;-48
2021/10/05 01:48:07;;;;;;;29.48;18.75;;;;;;;5.50;71.12;94148.63;5070684;28;20492;-49
2021/10/05 01:50:33;;;;;;;35.88;21.40;;;;;;;5.47;70.84;94148.91;5070449;28;20484;-48
2021/10/05 01:52:59;;;;;;;32.35;20.83;;;;;;;5.45;71.07;94152.16;5070857;28;20107;-48
2021/10/05 01:55:24;;;;;;;37.55;18.65;;;;;;;5.34;71.24;94157.63;5070709;28;20020;-48
2021/10/05 01:57:50;;;;;;;30.50;18.38;;;;;;;5.44;71.63;94160.84;5070767;28;20487;-51
2021/10/05 02:00:16;;;;;;;27.25;17.27;;;;;;;5.40;71.04;94150.16;5070398;28;20012;-48
2021/10/05 02:02:42;;;;;;;23.88;15.52;;;;;;;5.38;70.95;94147.16;5070609;28;20104;-48
2021/10/05 02:05:07;;;;;;;22.92;14.35;;;;;;;5.34;71.16;94154.88;5070246;28;20081;-49
2021/10/05 02:07:35;;;;;;;23.80;14.70;;;;;;;5.35;71.11;94142.66;5068999;28;20052;-48
2021/10/05 02:10:00;;;;;;;19.85;11.07;;;;;;;5.30;70.51;94135.22;5070614;28;20025;-49
2021/10/05 02:12:28;;;;;;;15.90;10.88;;;;;;;5.32;70.24;94151.91;5068982;28;20097;-49
2021/10/05 02:14:54;;;;;;;14.07;10.18;;;;;;;5.35;69.88;94145.41;5070597;28;20029;-48
2021/10/05 02:17:19;;;;;;;14.98;10.35;;;;;;;5.37;69.97;94145.69;5068663;28;20027;-47
2021/10/05 02:19:45;;;;;;;17.50;10.23;;;;;;;5.31;70.25;94133.97;5070118;28;20020;-50
2021/10/05 02:22:11;;;;;;;17.63;10.05;;;;;;;5.30;69.82;94146.16;5070081;28;20044;-52
2021/10/05 02:24:41;;;;;;;16.75;10.13;;;;;;;5.13;69.79;94129.00;5070502;28;20059;-50
2021/10/05 02:27:07;;;;;;;12.77;9.05;;;;;;;5.17;70.10;94146.66;5070430;28;20125;-48
2021/10/05 02:29:36;;;;;;;14.40;9.82;;;;;;;5.14;70.11;94150.38;5070425;28;20028;-47
2021/10/05 02:32:03;;;;;;;15.50;10.55;;;;;;;5.09;69.77;94142.91;5070097;28;20079;-49
2021/10/05 02:34:29;;;;;;;18.50;10.85;;;;;;;5.12;69.79;94141.94;5070430;28;20471;-48
2021/10/05 02:36:54;;;;;;;18.55;11.25;;;;;;;5.08;70.73;94135.97;5070245;28;20031;-48
2021/10/05 02:39:19;;;;;;;16.45;11.05;;;;;;;5.14;70.07;94133.22;5070307;28;20416;-49
2021/10/05 02:41:45;;;;;;;13.48;10.75;;;;;;;5.11;70.45;94140.41;5070232;28;20495;-48
2021/10/05 02:44:10;;;;;;;12.70;8.02;;;;;;;5.14;69.89;94139.44;5069963;28;20021;-50
2021/10/05 02:46:36;;;;;;;11.00;7.95;;;;;;;4.98;69.14;94114.81;5070139;28;20029;-50
2021/10/05 02:49:01;;;;;;;14.02;8.95;;;;;;;5.11;69.08;94147.91;5070265;28;20024;-50
2021/10/05 02:51:27;;;;;;;15.25;9.10;;;;;;;5.06;69.44;94140.44;5069850;28;20094;-48
2021/10/05 02:53:52;;;;;;;12.90;9.05;;;;;;;5.01;69.74;94144.66;5070171;28;20035;-49
2021/10/05 02:56:18;;;;;;;14.40;8.48;;;;;;;4.85;69.36;94139.16;5070219;28;20047;-49
2021/10/05 02:58:43;;;;;;;13.57;9.60;;;;;;;4.61;69.51;94096.56;5069827;28;20028;-50
2021/10/05 03:01:09;;;;;;;14.15;8.93;;;;;;;4.88;69.69;94144.38;5069696;28;20086;-49
2021/10/05 03:03:34;;;;;;;14.20;9.98;;;;;;;4.85;69.15;94139.16;5069752;28;20024;-50
2021/10/05 03:06:00;;;;;;;13.20;9.13;;;;;;;4.84;68.88;94151.34;5069788;28;20024;-49
2021/10/05 03:08:29;;;;;;;13.70;9.43;;;;;;;4.86;69.86;94146.13;5069512;28;20020;-47
2021/10/05 03:10:54;;;;;;;;;;;;;;;4.84;69.27;94145.88;5070209;28;20032;-48
2021/10/05 03:13:19;;;;;;;11.10;9.40;;;;;;;4.76;69.39;94144.84;5069960;28;19908;-47
2021/10/05 03:15:45;;;;;;;11.88;9.88;;;;;;;4.81;69.59;94146.88;5069759;28;20032;-48
2021/10/05 03:18:10;;;;;;;14.35;10.15;;;;;;;4.73;69.91;94148.56;5068461;28;20024;-50
2021/10/05 03:20:36;;;;;;;10.05;8.40;;;;;;;4.77;69.54;94144.34;5069272;28;20033;-47
2021/10/05 03:23:02;;;;;;;9.52;8.02;;;;;;;4.76;68.97;94147.59;5069557;28;20048;-47
2021/10/05 03:25:27;;;;;;;12.02;8.57;;;;;;;4.72;69.01;94149.81;5072742;28;20020;-48
2021/10/05 03:27:53;;;;;;;12.48;9.48;;;;;;;4.60;69.40;94146.31;5073367;28;20389;-49
2021/10/05 03:30:18;;;;;;;15.80;10.43;;;;;;;4.55;69.35;94147.78;5073392;28;20028;-47
2021/10/05 03:32:44;;;;;;;14.32;9.13;;;;;;;4.52;70.02;94142.56;5073353;28;20032;-48
2021/10/05 03:35:09;;;;;;;9.30;7.43;;;;;;;4.46;69.91;94158.94;5073103;28;20512;-48
2021/10/05 03:37:34;;;;;;;9.55;8.13;;;;;;;4.44;70.15;94155.94;5073188;28;20050;-50
2021/10/05 03:40:00;;;;;;;11.63;8.43;;;;;;;4.45;69.71;94157.44;5073264;28;20029;-48
2021/10/05 03:42:25;;;;;;;11.73;8.68;;;;;;;4.49;70.25;94152.50;5073107;28;20028;-49
2021/10/05 03:44:51;;;;;;;17.95;8.43;;;;;;;4.28;70.45;94139.50;5072813;28;20423;-47
2021/10/05 03:47:16;;;;;;;13.40;8.68;;;;;;;4.42;70.64;94158.44;5073064;28;20021;-49
2021/10/05 03:49:42;;;;;;;9.32;8.05;;;;;;;4.41;70.26;94158.94;5072753;28;20031;-48
2021/10/05 03:52:07;;;;;;;12.05;8.65;;;;;;;4.37;70.28;94148.25;5072717;28;20025;-48
2021/10/05 03:54:34;;;;;;;19.20;8.85;;;;;;;4.44;70.38;94160.69;5072972;28;20029;-50
2021/10/05 03:57:00;;;;;;;9.95;7.25;;;;;;;4.44;68.97;94152.50;5072584;28;20059;-50
2021/10/05 03:59:25;;;;;;;15.93;8.15;;;;;;;4.50;69.26;94159.44;5072874;28;20107;-48
2021/10/05 04:01:51;;;;;;;15.38;12.70;;;;;;;4.12;68.46;94146.38;5072463;28;20472;-48
2021/10/05 04:04:16;;;;;;;13.43;10.48;;;;;;;4.29;69.09;94158.13;5072800;28;20081;-50
2021/10/05 04:06:43;;;;;;;14.43;11.45;;;;;;;4.31;69.23;94169.31;5072634;28;20102;-50
2021/10/05 04:09:08;;;;;;;16.42;11.23;;;;;;;4.27;69.21;94165.31;5072637;28;20085;-47
2021/10/05 04:11:34;;;;;;;14.77;10.38;;;;;;;4.30;70.13;94170.56;5072715;28;20668;-48
2021/10/05 04:14:00;;;;;;;17.30;9.93;;;;;;;3.95;69.66;94120.97;5072561;28;20029;-48
2021/10/05 04:16:25;;;;;;;19.52;10.50;;;;;;;4.16;69.11;94155.09;5072512;28;20415;-47
2021/10/05 04:18:51;;;;;;;16.92;10.10;;;;;;;4.16;70.18;94173.50;5071833;28;20027;-47
2021/10/05 04:21:16;;;;;;;12.77;9.55;;;;;;;4.10;69.96;94172.69;5072210;28;20076;-50
2021/10/05 04:23:42;;;;;;;9.95;8.65;;;;;;;4.11;69.88;94174.94;5072473;28;20108;-48
2021/10/05 04:26:07;;;;;;;15.98;8.80;;;;;;;4.11;69.97;94176.94;5072265;28;20058;-48
2021/10/05 04:28:33;;;;;;;12.65;10.45;;;;;;;4.09;68.97;94179.41;5064899;28;20039;-48
2021/10/05 04:30:59;;;;;;;15.25;10.38;;;;;;;3.73;69.10;94139.97;5053930;28;20040;-47
2021/10/05 04:33:24;;;;;;;12.23;9.45;;;;;;;3.94;69.56;94182.31;5050729;28;20124;-47
2021/10/05 04:35:50;;;;;;;14.07;9.55;;;;;;;4.02;69.71;94185.31;5050390;28;20037;-49
2021/10/05 04:38:15;;;;;;;11.70;9.73;;;;;;;4.00;70.42;94185.06;5050351;28;20068;-47
2021/10/05 04:40:41;;;;;;;15.85;9.30;;;;;;;3.99;69.80;94180.81;5050250;28;20025;-47
2021/10/05 04:43:06;;;;;;;10.38;8.48;;;;;;;4.02;70.13;94188.81;5050165;28;20113;-47
2021/10/05 04:45:31;;;;;;;10.93;8.57;;;;;;;4.00;70.06;94193.25;5050191;28;20021;-46
2021/10/05 04:47:57;;;;;;;12.65;10.00;;;;;;;4.04;70.05;94193.78;5049941;28;20028;-47
2021/10/05 04:50:22;;;;;;;17.10;9.45;;;;;;;3.81;69.98;94144.47;5050157;28;20025;-48
2021/10/05 04:52:48;;;;;;;18.02;9.18;;;;;;;4.10;69.75;94192.56;5052471;28;20028;-46
2021/10/05 04:55:13;;;;;;;14.50;9.65;;;;;;;3.99;70.05;94176.13;5071796;28;20101;-46
2021/10/05 04:57:39;;;;;;;14.70;10.60;;;;;;;4.11;69.76;94196.06;5071758;28;20016;-48
2021/10/05 05:00:06;;;;;;;43.40;15.90;;;;;;;4.14;70.01;94190.34;5071347;28;20020;-47
2021/10/05 05:02:31;;;;;;;23.60;16.92;;;;;;;4.21;69.79;94184.44;5071666;28;20486;-47
2021/10/05 05:04:57;;;;;;;19.60;15.52;;;;;;;4.22;69.80;94188.66;5071321;28;20024;-49
2021/10/05 05:07:22;;;;;;;80.80;26.40;;;;;;;4.23;69.76;94181.97;5071174;28;20028;-46
2021/10/05 05:09:48;;;;;;;30.70;15.30;;;;;;;4.17;68.74;94185.91;5071498;28;20028;-46
2021/10/05 05:12:13;;;;;;;27.60;14.85;;;;;;;4.10;69.67;94191.81;5070045;28;20408;-47
2021/10/05 05:14:39;;;;;;;33.17;15.95;;;;;;;4.11;69.41;94196.81;5071108;28;20036;-47
2021/10/05 05:17:04;;;;;;;30.55;15.07;;;;;;;4.11;69.63;94194.09;5071308;28;20025;-48
2021/10/05 05:19:30;;;;;;;23.85;15.23;;;;;;;4.16;69.42;94203.56;5070839;28;20464;-46
2021/10/05 05:21:59;;;;;;;26.95;17.25;;;;;;;4.22;69.57;94201.59;5070718;28;20064;-47
2021/10/05 05:24:24;;;;;;;;;;;;;;;4.24;69.33;94210.78;5071767;28;20032;-47
2021/10/05 05:26:50;;;;;;;28.92;15.60;;;;;;;4.25;70.25;94208.78;5070797;28;20459;-48
2021/10/05 05:29:15;;;;;;;26.48;16.48;;;;;;;4.29;70.96;94210.06;5071090;28;20029;-48
2021/10/05 05:31:41;;;;;;;29.05;16.67;;;;;;;4.28;71.73;94224.97;5070855;28;20028;-48
2021/10/05 05:34:06;;;;;;;32.38;20.10;;;;;;;4.29;71.65;94217.50;5070718;28;20028;-47
2021/10/05 05:36:31;;;;;;;34.85;19.73;;;;;;;4.32;72.68;94222.00;5070938;28;20025;-48
2021/10/05 05:38:57;;;;;;;31.80;20.63;;;;;;;4.44;72.48;94216.09;5070753;28;20447;-47
2021/10/05 05:41:22;;;;;;;29.83;19.48;;;;;;;4.64;72.23;94209.72;5070988;28;20108;-47
2021/10/05 05:43:48;;;;;;;24.42;18.00;;;;;;;4.70;71.78;94210.47;5070626;28;20499;-47
2021/10/05 05:46:13;;;;;;;42.90;25.13;;;;;;;4.86;71.49;94222.72;5070701;28;20082;-48
2021/10/05 05:48:39;;;;;;;60.95;29.25;;;;;;;4.88;72.38;94220.25;5070778;28;20047;-47
2021/10/05 05:51:04;;;;;;;72.50;35.03;;;;;;;5.01;71.72;94224.00;5070394;28;20025;-46
2021/10/05 05:53:30;;;;;;;62.17;28.85;;;;;;;5.11;72.18;94221.81;5070849;28;20028;-48
2021/10/05 05:55:55;;;;;;;52.40;27.02;;;;;;;5.25;72.96;94223.56;5070476;28;20056;-47
2021/10/05 05:58:21;;;;;;;46.00;24.65;;;;;;;5.41;72.97;94224.84;5070474;28;20032;-48
2021/10/05 06:00:46;;;;;;;46.85;25.77;;;;;;;5.52;72.64;94222.88;5070419;28;20028;-47
2021/10/05 06:03:12;;;;;;;42.60;24.10;;;;;;;5.68;72.37;94224.84;5070394;28;20020;-48
2021/10/05 06:05:38;;;;;;;38.80;23.00;;;;;;;5.87;71.75;94212.16;5070708;28;20028;-47
2021/10/05 06:08:04;;;;;;;34.40;18.60;;;;;;;6.34;69.86;94206.84;5069000;28;20553;-49
2021/10/05 06:10:30;;;;;;;24.85;15.65;;;;;;;6.91;68.02;94223.34;5069459;28;20032;-47
2021/10/05 06:12:55;;;;;;;23.13;15.52;;;;;;;7.43;66.82;94218.56;5070252;28;20020;-48
2021/10/05 06:15:21;;;;;;;34.38;15.63;;;;;;;8.24;64.81;94223.16;5070516;28;20054;-47
2021/10/05 06:17:49;;;;;;;20.27;12.82;;;;;;;9.20;61.83;94210.56;5070208;28;20448;-47
2021/10/05 06:20:20;;;;;;;24.38;15.18;;;;;;;10.30;58.33;94215.66;5069795;28;20029;-47
2021/10/05 06:22:45;;;;;;;22.35;14.57;;;;;;;11.47;55.11;94209.31;5070070;28;20072;-46
2021/10/05 06:25:13;;;;;;;20.65;14.48;;;;;;;12.62;52.11;94212.59;5070461;28;20415;-48
2021/10/05 06:27:39;;;;;;;23.98;14.02;;;;;;;13.71;49.08;94212.06;5069930;28;20408;-48
2021/10/05 06:30:06;;;;;;;25.42;15.27;;;;;;;14.61;46.80;94189.94;5070423;28;20031;-49
2021/10/05 06:32:32;;;;;;;32.67;14.75;;;;;;;15.58;45.49;94199.34;5070352;28;20016;-48
2021/10/05 06:34:57;;;;;;;74.57;16.85;;;;;;;16.56;43.44;94200.78;5070018;28;20047;-49
2021/10/05 06:37:23;;;;;;;40.53;15.35;;;;;;;17.62;40.59;94205.31;5070263;28;20047;-48
2021/10/05 06:39:48;;;;;;;25.17;13.18;;;;;;;18.49;39.29;94198.91;5070266;28;20480;-47
2021/10/05 06:42:14;;;;;;;16.77;11.38;;;;;;;19.43;37.67;94202.50;5070333;28;20036;-48
2021/10/05 06:44:40;;;;;;;23.25;12.88;;;;;;;20.25;35.93;94202.84;5070244;28;20023;-48
2021/10/05 06:47:05;;;;;;;15.15;12.48;;;;;;;20.91;34.99;94192.69;5069832;28;20052;-47
2021/10/05 06:49:31;;;;;;;17.85;12.55;;;;;;;21.61;33.79;94202.28;5070213;28;20048;-48
2021/10/05 06:51:56;;;;;;;11.65;9.70;;;;;;;22.30;33.34;94196.19;5069838;28;20017;-48
2021/10/05 06:54:22;;;;;;;12.35;10.20;;;;;;;22.83;31.60;94193.78;5070177;28;20020;-49
2021/10/05 06:56:48;;;;;;;11.02;9.15;;;;;;;23.70;31.83;94208.13;5069833;28;20162;-48
2021/10/05 06:59:13;;;;;;;13.50;9.38;;;;;;;24.07;30.34;94212.44;5071465;28;20048;-48
2021/10/05 07:01:38;;;;;;;9.35;7.68;;;;;;;25.01;29.86;94215.44;5073968;28;20495;-49
2021/10/05 07:04:04;;;;;;;10.70;8.05;;;;;;;25.26;28.68;94204.75;5073824;28;20611;-50
2021/10/05 07:06:30;;;;;;;14.77;6.60;;;;;;;25.95;28.12;94205.38;5073853;28;20020;-48
2021/10/05 07:08:56;;;;;;;11.73;6.22;;;;;;;26.21;27.87;94201.75;5073471;28;20173;-47
2021/10/05 07:11:22;;;;;;;7.03;4.88;;;;;;;26.98;26.91;94191.91;5073808;28;20048;-48
2021/10/05 07:13:47;;;;;;;9.00;3.72;;;;;;;27.50;26.30;94192.78;5073395;28;20016;-48
2021/10/05 07:16:12;;;;;;;4.93;3.53;;;;;;;28.23;25.60;94179.50;5073173;28;20020;-49
2021/10/05 07:18:38;;;;;;;5.63;3.47;;;;;;;29.12;24.34;94189.34;5073365;28;20033;-48
2021/10/05 07:21:03;;;;;;;6.30;3.72;;;;;;;29.76;23.65;94182.41;5072796;28;20028;-47
2021/10/05 07:23:29;;;;;;;5.60;3.45;;;;;;;30.30;22.48;94174.97;5073645;28;20040;-50
2021/10/05 07:25:55;;;;;;;5.53;2.95;;;;;;;30.49;22.28;94171.31;5073244;28;20502;-48
2021/10/05 07:28:20;;;;;;;7.55;4.15;;;;;;;30.41;22.33;94171.78;5073509;28;20020;-47
2021/10/05 07:30:46;;;;;;;4.88;3.22;;;;;;;30.57;22.68;94174.41;5073404;28;20109;-50
2021/10/05 07:33:12;;;;;;;6.88;2.72;;;;;;;31.33;21.93;94176.69;5073521;28;20025;-52
2021/10/05 07:35:37;;;;;;;5.63;2.80;;;;;;;31.19;20.72;94167.72;5073378;28;20505;-47
2021/10/05 07:38:04;;;;;;;4.35;2.83;;;;;;;31.84;20.26;94166.63;5073058;28;20028;-49
2021/10/05 07:40:30;;;;;;;6.05;2.97;;;;;;;31.86;19.66;94170.28;5073255;28;20028;-49
2021/10/05 07:42:57;;;;;;;6.78;3.33;;;;;;;32.11;19.60;94165.94;5072899;28;20024;-50
2021/10/05 07:45:23;;;;;;;3.38;2.67;;;;;;;31.82;19.71;94153.03;5072929;28;20032;-48
2021/10/05 07:47:49;;;;;;;6.53;2.42;;;;;;;29.22;22.14;94172.69;5073045;28;20029;-48
2021/10/05 07:50:15;;;;;;;5.63;2.85;;;;;;;28.51;23.23;94175.69;5073078;28;20055;-51
2021/10/05 07:52:40;;;;;;;4.80;2.80;;;;;;;26.44;26.21;94157.50;5073075;28;20028;-48
2021/10/05 07:55:06;;;;;;;4.97;3.58;;;;;;;24.46;29.03;94166.56;5072618;28;20051;-48
2021/10/05 07:57:32;;;;;;;18.92;15.35;;;;;;;25.50;28.90;94171.34;5073044;28;20017;-49
2021/10/05 07:59:57;;;;;;;8.93;4.20;;;;;;;24.71;28.97;94172.16;5072587;28;20112;-47
2021/10/05 08:02:24;;;;;;;7.85;2.90;;;;;;;25.44;29.41;94174.63;5072872;28;20028;-49
2021/10/05 08:04:49;;;;;;;6.40;2.95;;;;;;;26.69;27.03;94183.47;5072529;28;20020;-49
2021/10/05 08:07:14;;;;;;;8.82;7.68;;;;;;;25.91;27.59;94185.38;5072557;28;20036;-51
2021/10/05 08:09:40;;;;;;;12.30;4.35;;;;;;;26.22;27.09;94171.38;5072576;28;20130;-47
2021/10/05 08:12:06;;;;;;;5.15;3.78;;;;;;;27.34;26.16;94181.44;5072348;28;20565;-49
2021/10/05 08:14:31;;;;;;;4.90;3.33;;;;;;;27.79;24.18;94167.78;5072404;28;20099;-49
2021/10/05 08:16:59;;;;;;;4.70;3.17;;;;;;;28.07;24.36;94170.38;5072544;28;20024;-49
2021/10/05 08:19:24;;;;;;;5.57;2.65;;;;;;;28.24;24.38;94170.34;5072122;28;20086;-47
2021/10/05 08:21:50;;;;;;;5.72;3.30;;;;;;;28.86;23.05;94171.31;5072209;28;20044;-49
2021/10/05 08:24:15;;;;;;;6.68;2.80;;;;;;;29.16;23.16;94167.50;5072142;28;20389;-49
2021/10/05 08:26:40;;;;;;;4.82;3.03;;;;;;;30.07;21.50;94167.06;5072303;28;20017;-47
2021/10/05 08:29:06;;;;;;;4.75;2.55;;;;;;;28.94;23.39;94175.19;5072313;28;20423;-49
2021/10/05 08:31:31;;;;;;;5.55;2.70;;;;;;;29.94;21.54;94166.69;5072062;28;20029;-51
2021/10/05 08:33:57;;;;;;;3.55;2.53;;;;;;;30.53;20.93;94169.31;5071896;28;20028;-49
2021/10/05 08:36:22;;;;;;;4.57;3.40;;;;;;;30.52;22.30;94165.00;5071967;28;20078;-49
2021/10/05 08:38:48;;;;;;;5.45;2.67;;;;;;;28.76;22.80;94173.78;5071737;28;20031;-50
2021/10/05 08:41:13;;;;;;;7.47;4.80;;;;;;;30.07;21.69;94173.50;5070833;28;20027;-51
2021/10/05 08:43:41;;;;;;;3.80;3.10;;;;;;;31.11;21.18;94170.34;5071992;28;20021;-48
2021/10/05 08:46:07;;;;;;;3.95;3.30;;;;;;;30.86;21.61;94173.91;5071955;28;20064;-50
2021/10/05 08:48:35;;;;;;;6.05;3.05;;;;;;;31.16;20.45;94169.09;5071914;28;20029;-48
2021/10/05 08:51:02;;;;;;;5.50;3.40;;;;;;;31.45;20.31;94170.59;5071583;28;20029;-50
2021/10/05 08:53:28;;;;;;;4.13;2.78;;;;;;;30.82;19.28;94178.72;5071814;28;20475;-50
2021/10/05 08:55:54;;;;;;;4.85;3.30;;;;;;;30.91;21.38;94178.31;5071459;28;20489;-52
2021/10/05 08:58:20;;;;;;;7.50;3.10;;;;;;;30.82;19.63;94181.59;5071584;28;20023;-51
2021/10/05 09:00:46;;;;;;;3.38;2.78;;;;;;;29.29;22.42;94177.19;5071671;28;20052;-47
2021/10/05 09:03:21;;;;;;;5.97;2.75;;;;;;;29.96;21.10;94180.25;5071397;28;20607;-48
2021/10/05 09:05:46;;;;;;;2.88;2.67;;;;;;;29.81;21.52;94159.13;5071300;28;20028;-48
2021/10/05 09:08:20;;;;;;;4.82;3.17;;;;;;;30.74;20.81;94176.34;5071501;28;20077;-49
2021/10/05 09:10:46;;;;;;;6.38;2.97;;;;;;;31.23;20.88;94173.53;5069966;28;20027;-52
2021/10/05 09:13:11;;;;;;;4.40;2.65;;;;;;;31.35;19.45;94178.88;5071449;28;20023;-48
2021/10/05 09:15:37;;;;;;;3.33;2.70;;;;;;;30.01;20.66;94176.16;5071129;28;20119;-50
2021/10/05 09:18:03;;;;;;;7.45;2.80;;;;;;;30.18;21.55;94174.56;5071060;28;20017;-48
2021/10/05 09:20:32;;;;;;;6.40;2.33;;;;;;;29.86;21.70;94174.22;5070965;28;20031;-50
2021/10/05 09:23:06;;;;;;;7.18;3.35;;;;;;;30.56;21.44;94173.66;5070279;28;20424;-49
2021/10/05 09:25:37;;;;;;;6.50;3.17;;;;;;;29.79;22.46;94176.16;5071368;28;20116;-48
2021/10/05 09:28:18;;;;;;;4.20;2.53;;;;;;;27.28;24.73;94174.78;5071151;28;20033;-49
2021/10/05 09:30:47;;;;;;;3.63;3.05;;;;;;;28.16;24.47;94169.28;5070918;28;20082;-50
2021/10/05 09:33:13;;;;;;;4.22;2.72;;;;;;;28.72;23.53;94173.66;5069520;28;20090;-50
2021/10/05 09:35:43;;;;;;;4.68;2.92;;;;;;;29.78;22.37;94171.81;5071040;28;20020;-48
2021/10/05 09:38:13;;;;;;;5.85;3.65;;;;;;;29.48;23.42;94161.50;5071036;28;20043;-48
2021/10/05 09:40:38;;;;;;;5.20;2.33;;;;;;;28.17;23.26;94171.50;5070946;28;20118;-47
2021/10/05 09:43:16;;;;;;;3.58;2.72;;;;;;;28.78;24.26;94168.91;5070974;28;20396;-47
2021/10/05 09:45:41;;;;;;;4.72;2.50;;;;;;;29.93;21.82;94159.53;5071003;28;20443;-48
2021/10/05 09:48:08;;;;;;;5.35;3.03;;;;;;;30.52;21.70;94164.25;5070645;28;20054;-48
2021/10/05 09:50:35;;;;;;;4.10;2.33;;;;;;;30.13;21.90;94153.75;5070488;28;20025;-48
2021/10/05 09:53:09;;;;;;;3.95;2.88;;;;;;;29.43;21.93;94154.22;5070471;28;20036;-48
2021/10/05 09:55:37;;;;;;;6.95;2.75;;;;;;;30.29;22.55;94147.84;5070596;28;20036;-47
2021/10/05 09:58:03;;;;;;;6.50;2.57;;;;;;;30.02;20.96;94139.88;5070466;28;20027;-48
2021/10/05 10:00:31;;;;;;;4.65;2.70;;;;;;;30.51;21.44;94146.47;5070716;28;20443;-47
2021/10/05 10:02:56;;;;;;;3.40;3.10;;;;;;;31.22;21.12;94145.69;5070330;28;20093;-47
2021/10/05 10:05:24;;;;;;;6.57;2.75;;;;;;;31.62;20.65;94154.66;5070687;28;20024;-47
2021/10/05 10:07:53;;;;;;;12.15;3.65;;;;;;;31.27;20.70;94153.69;5070300;28;20028;-49
2021/10/05 10:10:26;;;;;;;3.35;2.83;;;;;;;32.06;18.99;94150.81;5070303;28;20557;-48
2021/10/05 10:12:54;;;;;;;4.25;2.40;;;;;;;32.07;19.54;94149.44;5070622;28;20103;-49
2021/10/05 10:15:23;;;;;;;4.43;3.05;;;;;;;32.13;19.34;94143.13;5070560;28;20457;-47
2021/10/05 10:17:48;;;;;;;3.00;2.15;;;;;;;32.26;19.13;94155.56;5069329;28;20099;-48
2021/10/05 10:20:25;;;;;;;6.75;4.85;;;;;;;31.69;19.96;94147.69;5069916;28;20059;-49
2021/10/05 10:22:52;;;;;;;5.93;3.00;;;;;;;31.79;19.94;94151.56;5070053;28;20041;-46
2021/10/05 10:25:23;;;;;;;6.20;2.38;;;;;;;30.32;21.17;94138.00;5070162;28;20020;-48
2021/10/05 10:27:50;;;;;;;4.28;3.15;;;;;;;30.10;22.47;94145.81;5070361;28;20412;-49
2021/10/05 10:30:16;;;;;;;11.80;3.50;;;;;;;29.96;22.75;94143.97;5070432;28;20031;-47
2021/10/05 10:32:44;;;;;;;4.35;2.58;;;;;;;29.86;22.16;94151.47;5070113;28;20020;-48
2021/10/05 10:35:10;;;;;;;;;;;;;;;30.75;21.58;94146.47;5073722;28;20077;-48
2021/10/05 10:37:44;;;;;;;7.28;3.28;;;;;;;31.34;20.80;94143.88;5074073;28;20349;-46
2021/10/05 10:40:11;;;;;;;3.70;2.88;;;;;;;31.85;21.04;94148.13;5074397;28;20066;-46
2021/10/05 10:42:37;;;;;;;4.43;3.35;;;;;;;32.63;18.90;94140.75;5074052;28;20064;-47
2021/10/05 10:45:16;;;;;;;8.80;4.70;;;;;;;31.03;19.94;94135.91;5074047;28;20044;-49
2021/10/05 10:47:42;;;;;;;3.65;2.80;;;;;;;31.63;20.92;94133.25;5074165;28;20032;-48
2021/10/05 10:50:09;;;;;;;4.75;2.85;;;;;;;32.28;19.37;94138.47;5074210;28;20021;-48
2021/10/05 10:52:36;;;;;;;5.70;2.40;;;;;;;31.43;19.90;94131.31;5074360;28;20033;-48
2021/10/05 10:55:04;;;;;;;3.83;2.40;;;;;;;30.37;21.25;94131.03;5073851;28;20508;-47
2021/10/05 10:57:40;;;;;;;6.25;2.63;;;;;;;29.13;22.43;94140.34;5073764;28;20484;-47
2021/10/05 11:00:21;;;;;;;4.45;2.85;;;;;;;28.47;23.67;94140.69;5073715;28;20020;-48
2021/10/05 11:02:52;;;;;;;4.18;2.58;;;;;;;29.15;22.65;94143.25;5073889;28;20016;-46
2021/10/05 11:05:21;;;;;;;3.97;2.67;;;;;;;28.21;24.13;94146.09;5073891;28;20029;-48
2021/10/05 11:07:48;;;;;;;6.03;2.60;;;;;;;28.68;23.53;94145.06;5073778;28;20078;-48
2021/10/05 11:10:13;;;;;;;6.60;2.97;;;;;;;28.30;24.25;94130.84;5073868;28;20466;-50
2021/10/05 11:12:54;;;;;;;6.20;2.72;;;;;;;28.04;25.62;94144.00;5073793;28;20054;-45
2021/10/05 11:15:47;;;;;;;2.88;1.98;;;;;;;27.21;25.58;94130.53;5073706;28;20028;-46
2021/10/05 11:18:18;;;;;;;6.50;2.90;;;;;;;26.34;27.50;94129.44;5069080;28;20036;-47
2021/10/05 11:20:59;;;;;;;4.18;2.95;;;;;;;26.29;27.99;94134.19;5073043;28;20106;-48
2021/10/05 11:23:26;;;;;;;4.70;3.17;;;;;;;26.01;27.83;94130.00;5073312;28;20044;-47
2021/10/05 11:26:00;;;;;;;3.97;3.58;;;;;;;27.04;26.82;94135.50;5073259;28;20028;-46